Time;durP1;ratioP1;P1;durP2;ratioP2;P2;SDS_P1;SDS_P2;PMS_P1;PMS_P2;Temp;Humidity;BMP_temperature;BMP_pressure;BME280_temperature;BME280_humidity;BME280_pressure;Samples;Min_cycle;Max_cycle;Signal;HPM_P1;HPM_P2
2022/06/25 00:01:27;;;;;;;;;;;20.40;99.90;;;;;;4376365;32;46058;-79
2022/06/25 00:03:55;;;;;;;;;;;20.40;99.90;;;;;;4362962;32;42558;-84
2022/06/25 00:06:22;;;;;;;;;;;20.40;99.90;;;;;;4363082;32;45105;-79
2022/06/25 00:08:55;;;;;;;;;;;20.40;99.90;;;;;;4376297;32;43869;-79
2022/06/25 00:14:28;;;;;;;;;;;20.40;99.90;;;;;;4315118;33;43147;-78
2022/06/25 00:16:55;;;;;;;;;;;20.30;99.90;;;;;;4315063;33;42994;-81
2022/06/25 00:19:24;;;;;;;;;;;20.30;99.90;;;;;;4338642;32;42748;-82
2022/06/25 00:21:52;;;;;;;;;;;20.30;99.90;;;;;;4362399;32;46015;-81
2022/06/25 00:24:22;;;;;;;;;;;20.30;99.90;;;;;;4362497;32;42866;-81
2022/06/25 00:26:52;;;;;;;;;;;20.30;99.90;;;;;;4362482;32;44324;-79
2022/06/25 00:29:19;;;;;;;;;;;20.30;99.90;;;;;;4376167;32;44111;-81
2022/06/25 00:31:48;;;;;;;;;;;20.30;99.90;;;;;;4363460;32;20012;-82
2022/06/25 00:34:16;;;;;;;;;;;20.30;99.90;;;;;;4362640;32;43827;-82
2022/06/25 00:36:43;;;;;;;;;;;20.30;99.90;;;;;;4376003;32;44018;-82
2022/06/25 00:39:12;;;;;;;;;;;20.20;99.90;;;;;;4375529;32;45154;-81
2022/06/25 00:41:43;;;;;;;;;;;20.20;99.90;;;;;;4375845;32;43175;-86
2022/06/25 00:44:10;;;;;;;;;;;20.20;99.90;;;;;;4362669;32;44736;-81
2022/06/25 00:46:39;;;;;;;;;;;20.20;99.90;;;;;;4375807;32;45769;-83
2022/06/25 00:49:06;;;;;;;;;;;20.20;99.90;;;;;;4362515;32;43400;-80
2022/06/25 00:51:37;;;;;;;;;;;20.20;99.90;;;;;;4375445;32;43125;-81
2022/06/25 00:54:05;;;;;;;;;;;20.20;99.90;;;;;;4375792;32;43940;-85
2022/06/25 00:56:33;;;;;;;;;;;20.10;99.90;;;;;;4362259;32;42317;-84
2022/06/25 00:59:02;;;;;;;;;;;20.10;99.90;;;;;;4375637;32;44321;-82
2022/06/25 01:01:32;;;;;;;;;;;20.10;99.90;;;;;;4375211;32;43551;-82
2022/06/25 01:03:59;;;;;;;;;;;20.10;99.90;;;;;;4375000;32;43545;-81
2022/06/25 01:06:28;;;;;;;;;;;20.10;99.90;;;;;;4362230;32;44343;-80
2022/06/25 01:09:04;;;;;;;;;;;20.00;99.90;;;;;;4375505;32;43270;-83
2022/06/25 01:11:31;;;;;;;;;;;20.10;99.90;;;;;;4361612;32;42845;-82
2022/06/25 01:14:01;;;;;;;;;;;20.10;99.90;;;;;;4362133;32;44769;-82
2022/06/25 01:16:28;;;;;;;;;;;20.00;99.90;;;;;;4362136;32;44206;-83
2022/06/25 01:18:57;;;;;;;;;;;20.00;99.90;;;;;;4361951;32;44055;-80
2022/06/25 01:21:26;;;;;;;;;;;20.00;99.90;;;;;;4362113;32;46011;-81
2022/06/25 01:23:53;;;;;;;;;;;20.00;99.90;;;;;;4361818;32;44531;-83
2022/06/25 01:26:20;;;;;;;;;;;19.90;99.90;;;;;;4361989;32;43307;-84
2022/06/25 01:28:47;;;;;;;;;;;19.90;99.90;;;;;;4375081;32;42749;-78
2022/06/25 01:31:17;;;;;;;;;;;19.90;99.90;;;;;;4361582;32;44147;-85
2022/06/25 01:33:47;;;;;;;;;;;19.90;99.90;;;;;;4361432;32;42769;-82
2022/06/25 01:36:15;;;;;;;;;;;19.90;99.90;;;;;;4361842;32;43460;-80
2022/06/25 01:38:44;;;;;;;;;;;19.90;99.90;;;;;;4375307;32;42771;-80
2022/06/25 01:41:11;;;;;;;;;;;19.90;99.90;;;;;;4361544;32;44015;-77
2022/06/25 01:43:39;;;;;;;;;;;19.90;99.90;;;;;;4374698;32;42945;-82
2022/06/25 01:46:06;;;;;;;;;;;19.90;99.90;;;;;;4374836;32;44075;-87
2022/06/25 01:48:36;;;;;;;;;;;19.90;99.90;;;;;;4361843;32;43396;-82
2022/06/25 01:51:03;;;;;;;;;;;19.90;99.90;;;;;;4374992;32;46029;-82
2022/06/25 01:53:30;;;;;;;;;;;19.90;99.90;;;;;;4361573;32;43466;-85
2022/06/25 01:56:02;;;;;;;;;;;19.80;99.90;;;;;;4361324;32;45554;-87
2022/06/25 01:58:29;;;;;;;;;;;19.90;99.90;;;;;;4361906;32;43523;-80
2022/06/25 02:00:56;;;;;;;;;;;19.80;99.90;;;;;;4361766;32;45534;-84
2022/06/25 02:03:24;;;;;;;;;;;19.80;99.90;;;;;;4374803;32;44208;-84
2022/06/25 02:06:00;;;;;;;;;;;19.80;99.90;;;;;;4361486;32;44449;-85
2022/06/25 02:08:27;;;;;;;;;;;19.80;99.90;;;;;;4375037;32;45088;-85
2022/06/25 02:10:54;;;;;;;;;;;19.80;99.90;;;;;;4361650;32;43501;-78
2022/06/25 02:13:25;;;;;;;;;;;19.80;99.90;;;;;;4374660;32;42639;-80
2022/06/25 02:15:56;;;;;;;;;;;19.80;99.90;;;;;;4363037;32;45229;-87
2022/06/25 02:18:23;;;;;;;;;;;19.80;99.90;;;;;;4364371;32;43813;-83
2022/06/25 02:20:51;;;;;;;;;;;19.80;99.90;;;;;;4377914;32;44641;-84
2022/06/25 02:23:18;;;;;;;;;;;19.80;99.90;;;;;;4364303;32;42842;-78
2022/06/25 02:25:46;;;;;;;;;;;19.80;99.90;;;;;;4377530;32;42949;-87
2022/06/25 02:28:16;;;;;;;;;;;19.80;99.90;;;;;;4378163;32;45127;-82
2022/06/25 02:30:46;;;;;;;;;;;19.80;99.90;;;;;;4364626;32;44862;-84
2022/06/25 02:33:19;;;;;;;;;;;19.80;99.90;;;;;;4365234;32;20001;-84
2022/06/25 02:35:46;;;;;;;;;;;19.70;99.90;;;;;;4364458;32;44976;-83
2022/06/25 02:38:13;;;;;;;;;;;19.70;99.90;;;;;;4377401;32;44249;-86
2022/06/25 02:40:46;;;;;;;;;;;19.70;99.90;;;;;;4377404;32;44656;-77
2022/06/25 02:43:13;;;;;;;;;;;19.70;99.90;;;;;;4364332;32;44056;-80
2022/06/25 02:45:40;;;;;;;;;;;19.70;99.90;;;;;;4364449;32;43882;-79
2022/06/25 02:48:07;;;;;;;;;;;19.70;99.90;;;;;;4364630;32;43294;-83
2022/06/25 02:50:35;;;;;;;;;;;19.70;99.90;;;;;;4364323;32;45170;-81
2022/06/25 02:53:02;;;;;;;;;;;19.70;99.90;;;;;;4364051;32;44932;-80
2022/06/25 03:01:01;;;;;;;;;;;19.60;99.90;;;;;;4377424;32;43376;-80
2022/06/25 03:03:28;;;;;;;;;;;19.60;99.90;;;;;;4364422;32;19997;-79
2022/06/25 03:05:56;;;;;;;;;;;19.50;99.90;;;;;;4377405;32;43214;-87
2022/06/25 03:08:23;;;;;;;;;;;19.60;99.90;;;;;;4363599;32;43903;-83
2022/06/25 03:10:51;;;;;;;;;;;19.50;99.90;;;;;;4364081;32;43976;-88
2022/06/25 03:13:18;;;;;;;;;;;19.50;99.90;;;;;;4363789;32;43957;-84
2022/06/25 03:15:45;;;;;;;;;;;19.50;99.90;;;;;;4363377;32;44779;-84
2022/06/25 03:18:12;;;;;;;;;;;19.50;99.90;;;;;;4377365;32;44727;-88
2022/06/25 03:20:40;;;;;;;;;;;19.50;99.90;;;;;;4363423;32;43916;-84
2022/06/25 03:23:07;;;;;;;;;;;19.50;99.90;;;;;;4363767;32;43336;-79
2022/06/25 03:25:34;;;;;;;;;;;19.50;99.90;;;;;;4377188;32;44243;-84
2022/06/25 03:28:01;;;;;;;;;;;19.50;99.90;;;;;;4362544;32;41356;-85
2022/06/25 03:30:28;;;;;;;;;;;19.50;99.90;;;;;;4363889;32;44191;-86
2022/06/25 03:32:55;;;;;;;;;;;19.40;99.90;;;;;;4377302;32;43433;-86
2022/06/25 03:35:22;;;;;;;;;;;19.50;99.90;;;;;;4363293;32;42849;-77
2022/06/25 03:37:52;;;;;;;;;;;19.40;99.90;;;;;;4377066;32;44191;-84
2022/06/25 03:40:19;;;;;;;;;;;19.40;99.90;;;;;;4363507;32;42564;-84
2022/06/25 03:42:52;;;;;;;;;;;19.40;99.90;;;;;;4364438;32;45960;-88
2022/06/25 03:45:22;;;;;;;;;;;19.40;99.90;;;;;;4363281;32;42894;-83
2022/06/25 03:47:50;;;;;;;;;;;19.40;99.90;;;;;;4364678;32;20036;-84
2022/06/25 03:50:22;;;;;;;;;;;19.40;99.90;;;;;;4362921;32;44070;-81
2022/06/25 03:52:50;;;;;;;;;;;19.40;99.90;;;;;;4363403;32;44161;-85
2022/06/25 03:55:19;;;;;;;;;;;19.40;99.90;;;;;;4363237;32;43467;-87
2022/06/25 03:58:05;;;;;;;;;;;19.40;99.90;;;;;;4365027;32;44054;-83
2022/06/25 04:00:32;;;;;;;;;;;19.40;99.90;;;;;;4363394;32;45208;-82
2022/06/25 04:03:01;;;;;;;;;;;19.40;99.90;;;;;;4362677;32;43112;-83
2022/06/25 04:05:29;;;;;;;;;;;19.40;99.90;;;;;;4376426;32;43406;-88
2022/06/25 04:07:59;;;;;;;;;;;19.40;99.90;;;;;;4363145;32;44276;-84
2022/06/25 04:10:27;;;;;;;;;;;19.40;99.90;;;;;;4376455;32;44489;-85
2022/06/25 04:13:01;;;;;;;;;;;19.40;99.90;;;;;;4363517;32;43213;-84
2022/06/25 04:15:28;;;;;;;;;;;19.40;99.90;;;;;;4376237;32;45197;-81
2022/06/25 04:17:55;;;;;;;;;;;19.30;99.90;;;;;;4363032;32;42646;-85
2022/06/25 04:20:25;;;;;;;;;;;19.40;99.90;;;;;;4362412;32;44904;-83
2022/06/25 04:22:53;;;;;;;;;;;19.30;99.90;;;;;;4362435;32;44480;-87
2022/06/25 04:25:22;;;;;;;;;;;19.30;99.90;;;;;;4363054;32;43220;-81
2022/06/25 04:30:35;;;;;;;;;;;19.30;99.90;;;;;;4376206;32;44206;-83
2022/06/25 04:33:02;;;;;;;;;;;19.30;99.90;;;;;;4375649;32;44369;-79
2022/06/25 04:35:30;;;;;;;;;;;19.30;99.90;;;;;;4375975;32;43195;-80
2022/06/25 04:38:02;;;;;;;;;;;19.30;99.90;;;;;;4375624;32;44237;-85
2022/06/25 04:40:29;;;;;;;;;;;19.30;99.90;;;;;;4375994;32;44701;-80
2022/06/25 04:42:57;;;;;;;;;;;19.30;99.90;;;;;;4376196;32;43459;-78
2022/06/25 04:45:24;;;;;;;;;;;19.30;99.90;;;;;;4375604;32;43186;-80
2022/06/25 04:47:51;;;;;;;;;;;19.30;99.90;;;;;;4376132;32;43560;-78
2022/06/25 04:50:18;;;;;;;;;;;19.20;99.90;;;;;;4375844;32;44287;-81
2022/06/25 04:52:45;;;;;;;;;;;19.20;99.90;;;;;;4375722;32;44057;-83
2022/06/25 04:55:12;;;;;;;;;;;19.20;99.90;;;;;;4375813;32;43486;-80
2022/06/25 04:57:42;;;;;;;;;;;19.20;99.90;;;;;;4362613;32;43023;-79
2022/06/25 05:00:11;;;;;;;;;;;19.20;99.90;;;;;;4361902;32;42679;-83
2022/06/25 05:02:38;;;;;;;;;;;19.20;99.90;;;;;;4375145;32;42852;-85
2022/06/25 05:05:06;;;;;;;;;;;19.10;99.90;;;;;;4363328;32;20000;-88
2022/06/25 05:07:34;;;;;;;;;;;19.10;99.90;;;;;;4375100;32;44266;-80
2022/06/25 05:10:03;;;;;;;;;;;19.10;99.90;;;;;;4375291;32;43848;-79
2022/06/25 05:15:18;;;;;;;;;;;19.10;99.90;;;;;;4375203;32;43454;-79
2022/06/25 05:17:45;;;;;;;;;;;19.10;99.90;;;;;;4375154;32;44225;-82
2022/06/25 05:20:15;;;;;;;;;;;19.10;99.90;;;;;;4361803;32;43933;-83
2022/06/25 05:22:42;;;;;;;;;;;19.10;99.90;;;;;;4361224;32;43194;-78
2022/06/25 05:25:09;;;;;;;;;;;19.10;99.90;;;;;;4361757;32;44565;-77
2022/06/25 05:27:39;;;;;;;;;;;19.10;99.90;;;;;;4362147;32;43457;-79
2022/06/25 05:30:07;;;;;;;;;;;19.00;99.90;;;;;;4361626;32;43352;-79
2022/06/25 05:32:37;;;;;;;;;;;19.10;99.90;;;;;;4361744;32;43575;-78
2022/06/25 05:35:04;;;;;;;;;;;19.10;99.90;;;;;;4375160;32;42854;-77
2022/06/25 05:37:32;;;;;;;;;;;19.10;99.90;;;;;;4361678;32;44455;-80
2022/06/25 05:39:59;;;;;;;;;;;19.10;99.90;;;;;;4361357;32;45797;-79
2022/06/25 05:42:32;;;;;;;;;;;19.00;99.90;;;;;;4361654;32;43502;-77
2022/06/25 05:44:59;;;;;;;;;;;19.10;99.90;;;;;;4374444;32;44418;-80
2022/06/25 05:47:30;;;;;;;;;;;19.10;99.90;;;;;;4362037;32;44510;-82
2022/06/25 05:49:57;;;;;;;;;;;19.10;99.90;;;;;;4360724;32;42863;-81
2022/06/25 05:52:27;;;;;;;;;;;19.10;99.90;;;;;;4375888;32;20054;-82
2022/06/25 05:55:03;;;;;;;;;;;19.10;99.90;;;;;;4362318;32;45985;-79
2022/06/25 05:57:32;;;;;;;;;;;19.10;99.90;;;;;;4361536;32;44223;-78
2022/06/25 05:59:59;;;;;;;;;;;19.10;99.90;;;;;;4361366;32;44007;-80
2022/06/25 06:02:26;;;;;;;;;;;19.10;99.90;;;;;;4374097;32;42906;-81
2022/06/25 06:04:54;;;;;;;;;;;19.20;99.90;;;;;;4374288;32;45702;-81
2022/06/25 06:07:21;;;;;;;;;;;19.10;99.90;;;;;;4361153;32;43742;-81
2022/06/25 06:09:49;;;;;;;;;;;19.20;99.90;;;;;;4361588;32;44247;-83
2022/06/25 06:12:16;;;;;;;;;;;19.20;99.90;;;;;;4361581;32;43467;-80
2022/06/25 06:14:43;;;;;;;;;;;19.20;99.90;;;;;;4360910;32;44920;-82
2022/06/25 06:17:10;;;;;;;;;;;19.10;99.90;;;;;;4361128;32;42714;-83
2022/06/25 06:19:37;;;;;;;;;;;19.20;99.90;;;;;;4375119;32;43513;-76
2022/06/25 06:22:04;;;;;;;;;;;19.20;99.90;;;;;;4375199;32;43734;-83
2022/06/25 06:24:33;;;;;;;;;;;19.20;99.90;;;;;;4360927;32;44659;-80
2022/06/25 06:27:01;;;;;;;;;;;19.20;99.90;;;;;;4361046;32;44147;-76
2022/06/25 06:29:28;;;;;;;;;;;19.20;99.90;;;;;;4361018;32;43304;-85
2022/06/25 06:31:55;;;;;;;;;;;19.20;99.90;;;;;;4374846;32;45124;-81
2022/06/25 06:34:23;;;;;;;;;;;19.10;99.90;;;;;;4361086;32;42683;-81
2022/06/25 06:36:50;;;;;;;;;;;19.20;99.90;;;;;;4374848;32;46214;-77
2022/06/25 06:39:17;;;;;;;;;;;19.20;99.90;;;;;;4374572;32;43417;-84
2022/06/25 06:41:44;;;;;;;;;;;19.20;99.90;;;;;;4361387;32;44069;-87
2022/06/25 06:44:11;;;;;;;;;;;19.10;99.90;;;;;;4361040;32;43154;-82
2022/06/25 06:46:39;;;;;;;;;;;19.10;99.90;;;;;;4361679;32;44241;-85
2022/06/25 06:49:07;;;;;;;;;;;19.10;99.90;;;;;;4361069;32;44802;-78
2022/06/25 06:51:34;;;;;;;;;;;19.10;99.90;;;;;;4374816;32;44199;-83
2022/06/25 06:54:01;;;;;;;;;;;19.10;99.90;;;;;;4374689;32;44223;-81
2022/06/25 06:56:28;;;;;;;;;;;19.10;99.90;;;;;;4361227;32;42273;-81
2022/06/25 06:58:55;;;;;;;;;;;19.10;99.90;;;;;;4360754;32;44362;-84
2022/06/25 07:01:22;;;;;;;;;;;19.10;99.90;;;;;;4375082;32;43857;-86
2022/06/25 07:03:49;;;;;;;;;;;19.10;99.90;;;;;;4363866;32;44326;-81
2022/06/25 07:06:16;;;;;;;;;;;19.20;99.90;;;;;;4363849;32;44273;-78
2022/06/25 07:08:43;;;;;;;;;;;19.20;99.90;;;;;;4364226;32;44002;-82
2022/06/25 07:11:29;;;;;;;;;;;19.20;99.90;;;;;;4377082;32;43941;-84
2022/06/25 07:13:57;;;;;;;;;;;19.20;99.90;;;;;;4363730;32;43883;-80
2022/06/25 07:16:24;;;;;;;;;;;19.20;99.90;;;;;;4377277;32;43909;-85
2022/06/25 07:18:51;;;;;;;;;;;19.20;99.90;;;;;;4377019;32;43287;-79
2022/06/25 07:21:18;;;;;;;;;;;19.30;99.90;;;;;;4363567;32;44358;-75
2022/06/25 07:23:46;;;;;;;;;;;19.30;99.90;;;;;;4376595;32;43313;-81
2022/06/25 07:26:13;;;;;;;;;;;19.30;99.90;;;;;;4363306;32;44175;-83
2022/06/25 07:28:41;;;;;;;;;;;19.30;99.90;;;;;;4363393;32;42941;-89
2022/06/25 07:31:08;;;;;;;;;;;19.30;99.90;;;;;;4377187;32;45123;-86
2022/06/25 07:33:35;;;;;;;;;;;19.40;99.90;;;;;;4376991;32;44102;-90
2022/06/25 07:36:05;;;;;;;;;;;19.40;99.90;;;;;;4363700;32;43960;-80
2022/06/25 07:38:33;;;;;;;;;;;19.40;99.90;;;;;;4376537;32;43451;-86
2022/06/25 07:41:01;;;;;;;;;;;19.40;99.90;;;;;;4363234;32;43430;-88
2022/06/25 07:46:35;;;;;;;;;;;19.40;99.90;;;;;;4378270;32;20020;-81
2022/06/25 07:49:02;;;;;;;;;;;19.50;99.90;;;;;;4376921;32;43020;-84
2022/06/25 07:54:39;;;;;;;;;;;19.50;99.90;;;;;;4367384;32;44587;-78
2022/06/25 07:57:22;;;;;;;;;;;19.50;99.90;;;;;;4361389;32;19996;-79
2022/06/25 07:59:49;;;;;;;;;;;19.50;99.90;;;;;;4376380;32;43417;-81
2022/06/25 08:02:16;;;;;;;;;;;19.50;99.90;;;;;;4376225;32;42941;-80
2022/06/25 08:04:43;;;;;;;;;;;19.50;99.90;;;;;;4362901;32;42531;-83
2022/06/25 08:07:12;;;;;;;;;;;19.50;99.90;;;;;;4376172;32;43019;-79
2022/06/25 08:09:40;;;;;;;;;;;19.50;99.90;;;;;;4363093;32;42965;-85
2022/06/25 08:12:08;;;;;;;;;;;19.50;99.90;;;;;;4376981;32;43856;-86
2022/06/25 08:15:04;;;;;;;;;;;19.60;99.90;;;;;;4481146;31;20391;-80
2022/06/25 08:17:34;;;;;;;;;;;19.60;99.90;;;;;;4480484;32;43426;-79
2022/06/25 08:20:02;;;;;;;;;;;19.60;99.90;;;;;;4480111;32;46381;-79
2022/06/25 08:22:30;;;;;;;;;;;19.60;99.90;;;;;;4480158;32;44226;-86
2022/06/25 08:24:57;;;;;;;;;;;19.60;99.90;;;;;;4479805;32;43515;-85
2022/06/25 08:27:25;;;;;;;;;;;19.60;99.90;;;;;;4478742;32;44735;-86
2022/06/25 08:29:52;;;;;;;;;;;19.70;99.90;;;;;;4478570;32;42533;-82
2022/06/25 08:32:19;;;;;;;;;;;19.70;99.90;;;;;;4479986;32;43318;-85
2022/06/25 08:34:46;;;;;;;;;;;19.70;99.90;;;;;;4478385;32;43367;-77
2022/06/25 08:37:13;;;;;;;;;;;19.70;99.90;;;;;;4478831;32;45617;-89
2022/06/25 08:39:40;;;;;;;;;;;19.70;99.90;;;;;;4478535;32;43819;-84
2022/06/25 08:42:07;;;;;;;;;;;19.70;99.90;;;;;;4479778;32;43184;-78
2022/06/25 08:44:34;;;;;;;;;;;19.80;99.90;;;;;;4479549;32;43814;-78
2022/06/25 08:47:01;;;;;;;;;;;19.80;99.90;;;;;;4479783;32;44089;-80
2022/06/25 08:49:37;;;;;;;;;;;19.80;99.90;;;;;;4478517;32;42330;-84
2022/06/25 08:52:14;;;;;;;;;;;19.80;99.90;;;;;;4479015;32;44508;-82
2022/06/25 08:54:44;;;;;;;;;;;19.80;99.90;;;;;;4478566;32;43502;-84
2022/06/25 08:57:11;;;;;;;;;;;19.80;99.90;;;;;;4479692;32;44970;-87
2022/06/25 08:59:39;;;;;;;;;;;19.80;99.90;;;;;;4478657;32;42258;-84
2022/06/25 09:02:06;;;;;;;;;;;19.80;99.90;;;;;;4479386;32;43281;-84
2022/06/25 09:04:33;;;;;;;;;;;19.80;99.90;;;;;;4479268;32;44045;-91
2022/06/25 09:07:13;;;;;;;;;;;19.90;99.90;;;;;;4479438;32;20031;-86
2022/06/25 09:09:49;;;;;;;;;;;19.80;99.90;;;;;;4479686;32;44822;-89
2022/06/25 09:12:19;;;;;;;;;;;19.80;99.90;;;;;;4478550;32;43865;-89
2022/06/25 09:14:46;;;;;;;;;;;19.90;99.90;;;;;;4478217;32;43592;-83
2022/06/25 09:17:14;;;;;;;;;;;19.90;99.90;;;;;;4479512;32;43798;-85
2022/06/25 09:19:47;;;;;;;;;;;19.90;99.90;;;;;;4478658;32;43955;-86
2022/06/25 09:22:18;;;;;;;;;;;19.90;99.90;;;;;;4478622;32;43123;-90
2022/06/25 09:24:54;;;;;;;;;;;19.90;99.90;;;;;;4475013;32;42936;-87
2022/06/25 09:27:35;;;;;;;;;;;19.90;99.90;;;;;;4468300;32;43537;-84
2022/06/25 09:30:09;;;;;;;;;;;19.90;99.90;;;;;;4468417;32;44711;-87
2022/06/25 09:32:43;;;;;;;;;;;19.90;99.90;;;;;;4468198;32;42746;-86
2022/06/25 09:35:10;;;;;;;;;;;19.90;99.90;;;;;;4468147;32;44519;-91
2022/06/25 09:37:38;;;;;;;;;;;19.90;99.90;;;;;;4469491;32;20002;-85
2022/06/25 09:40:06;;;;;;;;;;;19.90;99.90;;;;;;4468125;32;43320;-90
2022/06/25 09:42:34;;;;;;;;;;;19.90;99.90;;;;;;4469283;32;44589;-89
2022/06/25 09:45:04;;;;;;;;;;;19.90;99.90;;;;;;4468130;32;44946;-86
2022/06/25 09:47:36;;;;;;;;;;;19.90;99.90;;;;;;4467996;32;45103;-92
2022/06/25 09:50:08;;;;;;;;;;;19.90;99.90;;;;;;4468470;32;43261;-90
2022/06/25 09:52:36;;;;;;;;;;;19.90;99.90;;;;;;4468485;32;43395;-87
2022/06/25 09:55:10;;;;;;;;;;;20.00;99.90;;;;;;4468804;32;44757;-90
2022/06/25 09:57:37;;;;;;;;;;;20.00;99.90;;;;;;4467390;32;45559;-84
2022/06/25 10:00:04;;;;;;;;;;;20.00;99.90;;;;;;4468683;32;43478;-88
2022/06/25 10:02:32;;;;;;;;;;;20.00;99.90;;;;;;4468287;32;43064;-88
2022/06/25 10:05:03;;;;;;;;;;;20.00;99.90;;;;;;4466835;32;44527;-90
2022/06/25 10:10:19;;;;;;;;;;;20.00;99.90;;;;;;4468402;32;43566;-90
2022/06/25 10:12:47;;;;;;;;;;;20.10;99.90;;;;;;4466919;32;43983;-85
2022/06/25 10:15:19;;;;;;;;;;;20.00;99.90;;;;;;4469147;32;20013;-81
2022/06/25 10:17:55;;;;;;;;;;;20.00;99.90;;;;;;4469372;32;20154;-89
2022/06/25 10:20:36;;;;;;;;;;;20.10;99.90;;;;;;4467172;32;43796;-89
2022/06/25 10:23:20;;;;;;;;;;;20.10;99.90;;;;;;4466183;32;43185;-84
2022/06/25 10:25:47;;;;;;;;;;;20.10;99.90;;;;;;4468053;32;43737;-85
2022/06/25 10:28:15;;;;;;;;;;;20.10;99.90;;;;;;4467915;32;45727;-86
2022/06/25 10:30:45;;;;;;;;;;;20.10;99.90;;;;;;4467013;32;44186;-85
2022/06/25 10:33:14;;;;;;;;;;;20.10;99.90;;;;;;4468276;32;44210;-87
2022/06/25 10:35:41;;;;;;;;;;;20.10;99.90;;;;;;4467988;32;43198;-87
2022/06/25 10:38:18;;;;;;;;;;;20.10;99.90;;;;;;4467461;32;43113;-84
2022/06/25 10:40:47;;;;;;;;;;;20.20;99.90;;;;;;4467512;32;43020;-85
2022/06/25 10:43:34;;;;;;;;;;;20.20;99.90;;;;;;4467001;32;44204;-89
2022/06/25 10:46:19;;;;;;;;;;;20.20;99.90;;;;;;4467029;32;43681;-87
2022/06/25 10:49:06;;;;;;;;;;;20.20;99.90;;;;;;4467710;32;42687;-81
2022/06/25 10:51:39;;;;;;;;;;;20.20;99.90;;;;;;4466801;32;46115;-85
2022/06/25 10:54:07;;;;;;;;;;;20.20;99.90;;;;;;4466780;32;44981;-86
2022/06/25 10:56:41;;;;;;;;;;;20.20;99.90;;;;;;4466546;32;45651;-86
2022/06/25 10:59:08;;;;;;;;;;;20.30;99.90;;;;;;4467717;32;42147;-87
2022/06/25 11:01:35;;;;;;;;;;;20.20;99.90;;;;;;4467662;32;41823;-84
2022/06/25 11:04:03;;;;;;;;;;;20.30;99.90;;;;;;4466290;32;44275;-88
2022/06/25 11:06:34;;;;;;;;;;;20.30;99.90;;;;;;4467041;32;43232;-88
2022/06/25 11:09:06;;;;;;;;;;;20.30;99.90;;;;;;4466148;32;43942;-88
2022/06/25 11:11:34;;;;;;;;;;;20.30;99.90;;;;;;4467644;32;43385;-87
2022/06/25 11:14:02;;;;;;;;;;;20.30;99.90;;;;;;4465662;32;45717;-86
2022/06/25 11:16:29;;;;;;;;;;;20.30;99.90;;;;;;4467235;32;43317;-88
2022/06/25 11:19:00;;;;;;;;;;;20.30;99.90;;;;;;4466156;32;44186;-87
2022/06/25 11:21:54;;;;;;;;;;;20.40;99.90;;;;;;4466269;32;43490;-89
2022/06/25 11:24:23;;;;;;;;;;;20.30;99.90;;;;;;4462773;32;43773;-87
2022/06/25 11:29:46;;;;;;;;;;;20.40;99.90;;;;;;4466926;32;43812;-87
2022/06/25 11:32:24;;;;;;;;;;;20.40;99.90;;;;;;4467101;32;44547;-82
2022/06/25 11:35:00;;;;;;;;;;;20.40;99.90;;;;;;4467004;32;44581;-87
2022/06/25 11:37:29;;;;;;;;;;;20.40;99.90;;;;;;4466109;32;46068;-86
2022/06/25 11:39:57;;;;;;;;;;;20.40;99.90;;;;;;4465428;32;44283;-82
2022/06/25 11:42:24;;;;;;;;;;;20.50;99.90;;;;;;4467003;32;44302;-82
2022/06/25 11:44:52;;;;;;;;;;;20.50;99.90;;;;;;4466347;32;42369;-82
2022/06/25 11:47:27;;;;;;;;;;;20.50;99.90;;;;;;4465918;32;42978;-81
2022/06/25 11:49:55;;;;;;;;;;;20.50;99.90;;;;;;4465912;32;43912;-85
2022/06/25 11:52:23;;;;;;;;;;;20.50;99.90;;;;;;4466472;32;44176;-82
2022/06/25 11:54:51;;;;;;;;;;;20.60;99.90;;;;;;4466796;32;44695;-90
2022/06/25 11:57:22;;;;;;;;;;;20.60;99.90;;;;;;4466485;32;44310;-83
2022/06/25 11:59:50;;;;;;;;;;;20.60;99.90;;;;;;4466456;32;43214;-85
2022/06/25 12:02:17;;;;;;;;;;;20.60;99.90;;;;;;4465941;32;43864;-85
2022/06/25 12:04:51;;;;;;;;;;;20.60;99.90;;;;;;4466518;32;42742;-82
2022/06/25 12:07:29;;;;;;;;;;;20.60;99.90;;;;;;4465533;32;42591;-85
2022/06/25 12:09:59;;;;;;;;;;;20.70;99.90;;;;;;4466714;32;43655;-84
2022/06/25 12:12:27;;;;;;;;;;;20.70;99.90;;;;;;4465205;32;43854;-85
2022/06/25 12:14:55;;;;;;;;;;;20.70;99.90;;;;;;4466076;32;44286;-82
2022/06/25 12:17:22;;;;;;;;;;;20.70;99.90;;;;;;4465110;32;45859;-83
2022/06/25 12:19:50;;;;;;;;;;;20.70;99.90;;;;;;4466195;32;42851;-83
2022/06/25 12:22:24;;;;;;;;;;;20.70;99.90;;;;;;4466139;32;42890;-86
2022/06/25 12:24:52;;;;;;;;;;;20.80;99.90;;;;;;4465133;32;43217;-81
2022/06/25 12:27:19;;;;;;;;;;;20.80;99.90;;;;;;4466221;32;43747;-83
2022/06/25 12:29:48;;;;;;;;;;;20.80;99.90;;;;;;4465090;32;44213;-83
2022/06/25 12:32:15;;;;;;;;;;;20.80;99.90;;;;;;4465552;32;45414;-82
2022/06/25 12:34:50;;;;;;;;;;;20.80;99.90;;;;;;4465313;32;42602;-81
2022/06/25 12:37:46;;;;;;;;;;;20.90;99.90;;;;;;4466481;32;43070;-81
2022/06/25 12:40:22;;;;;;;;;;;20.80;99.90;;;;;;4448665;32;43979;-82
2022/06/25 12:42:54;;;;;;;;;;;20.80;99.90;;;;;;4465356;32;43930;-84
2022/06/25 12:45:22;;;;;;;;;;;20.90;99.90;;;;;;4466018;32;43045;-85
2022/06/25 12:47:49;;;;;;;;;;;20.90;99.90;;;;;;4466326;32;42663;-84
2022/06/25 12:50:23;;;;;;;;;;;20.90;99.90;;;;;;4464823;32;42860;-84
2022/06/25 12:52:51;;;;;;;;;;;20.90;99.90;;;;;;4465558;32;43925;-84
2022/06/25 12:55:22;;;;;;;;;;;20.90;99.90;;;;;;4465055;32;43760;-80
2022/06/25 12:57:56;;;;;;;;;;;20.90;99.90;;;;;;4465467;32;43594;-82
2022/06/25 13:00:24;;;;;;;;;;;20.90;99.90;;;;;;4466221;32;42757;-82
2022/06/25 13:02:51;;;;;;;;;;;20.90;99.90;;;;;;4469030;32;40907;-83
2022/06/25 13:05:19;;;;;;;;;;;20.90;99.90;;;;;;4468892;32;42870;-85
2022/06/25 13:07:47;;;;;;;;;;;20.90;99.90;;;;;;4468002;32;43498;-84
2022/06/25 13:10:15;;;;;;;;;;;20.90;99.90;;;;;;4468050;32;44749;-83
2022/06/25 13:12:43;;;;;;;;;;;20.90;99.90;;;;;;4468929;32;45157;-81
2022/06/25 13:15:12;;;;;;;;;;;20.90;99.90;;;;;;4468368;32;44264;-80
2022/06/25 13:17:40;;;;;;;;;;;21.00;99.90;;;;;;4468646;32;44424;-81
2022/06/25 13:20:07;;;;;;;;;;;21.00;99.90;;;;;;4467414;32;42630;-82
2022/06/25 13:22:34;;;;;;;;;;;21.00;99.90;;;;;;4467402;32;43929;-82
2022/06/25 13:25:05;;;;;;;;;;;21.00;99.90;;;;;;4467709;32;44255;-81
2022/06/25 13:27:33;;;;;;;;;;;21.00;99.90;;;;;;4468915;32;45051;-78
2022/06/25 13:30:01;;;;;;;;;;;21.00;99.90;;;;;;4467905;32;43830;-85
2022/06/25 13:32:28;;;;;;;;;;;21.00;99.90;;;;;;4467436;32;43211;-82
2022/06/25 13:34:56;;;;;;;;;;;21.00;99.90;;;;;;4468474;32;44028;-81
2022/06/25 13:37:23;;;;;;;;;;;21.00;99.90;;;;;;4468984;32;43805;-82
2022/06/25 13:39:50;;;;;;;;;;;21.00;99.90;;;;;;4467621;32;46263;-80
2022/06/25 13:42:17;;;;;;;;;;;21.10;99.90;;;;;;4467641;32;44182;-81
2022/06/25 13:44:44;;;;;;;;;;;21.10;99.90;;;;;;4467663;32;43304;-82
2022/06/25 13:47:11;;;;;;;;;;;21.10;99.90;;;;;;4468728;32;44504;-80
2022/06/25 13:49:38;;;;;;;;;;;21.10;99.90;;;;;;4468140;32;43955;-82
2022/06/25 13:52:06;;;;;;;;;;;21.10;99.90;;;;;;4467083;32;44161;-81
2022/06/25 13:54:33;;;;;;;;;;;21.10;99.90;;;;;;4468578;32;43186;-81
2022/06/25 13:57:00;;;;;;;;;;;21.10;99.90;;;;;;4467965;32;42683;-81
2022/06/25 13:59:27;;;;;;;;;;;21.10;99.90;;;;;;4467415;32;43481;-81
2022/06/25 14:01:54;;;;;;;;;;;21.10;99.90;;;;;;4467871;32;42988;-81
2022/06/25 14:04:21;;;;;;;;;;;21.20;99.90;;;;;;4467884;32;44814;-80
2022/06/25 14:06:49;;;;;;;;;;;21.20;99.90;;;;;;4468339;32;43996;-81
2022/06/25 14:09:16;;;;;;;;;;;21.20;99.90;;;;;;4468121;32;43504;-80
2022/06/25 14:11:43;;;;;;;;;;;21.20;99.90;;;;;;4468080;32;43461;-81
2022/06/25 14:14:11;;;;;;;;;;;21.20;99.90;;;;;;4467802;32;43840;-82
2022/06/25 14:16:38;;;;;;;;;;;21.20;99.90;;;;;;4467171;32;44193;-85
2022/06/25 14:19:05;;;;;;;;;;;21.20;99.90;;;;;;4466927;32;43912;-81
2022/06/25 14:21:32;;;;;;;;;;;21.20;99.90;;;;;;4466576;32;43311;-81
2022/06/25 14:23:59;;;;;;;;;;;21.20;99.90;;;;;;4467656;32;43835;-84
2022/06/25 14:26:27;;;;;;;;;;;21.20;99.90;;;;;;4466471;32;43061;-80
2022/06/25 14:28:54;;;;;;;;;;;21.30;99.90;;;;;;4467685;32;44180;-83
2022/06/25 14:31:21;;;;;;;;;;;21.30;99.90;;;;;;4466978;32;43626;-83
2022/06/25 14:33:48;;;;;;;;;;;21.30;99.90;;;;;;4466288;32;44232;-81
2022/06/25 14:44:34;;;;;;;;;;;21.30;99.70;;;;;;4468559;32;19999;-80
2022/06/25 14:47:07;;;;;;;;;;;21.30;99.70;;;;;;4467729;32;45221;-81
2022/06/25 14:49:34;;;;;;;;;;;21.30;99.60;;;;;;4467323;32;42264;-81
2022/06/25 14:52:01;;;;;;;;;;;21.30;99.90;;;;;;4466903;32;43065;-84
2022/06/25 14:54:28;;;;;;;;;;;21.30;99.90;;;;;;4467462;32;44552;-80
2022/06/25 14:56:55;;;;;;;;;;;21.40;99.80;;;;;;4466879;32;43376;-81
2022/06/25 14:59:23;;;;;;;;;;;21.40;99.90;;;;;;4467340;32;42526;-83
2022/06/25 15:01:50;;;;;;;;;;;21.40;99.90;;;;;;4467443;32;43597;-82